Sutton-Alpine, AK

5:05 PM AKDT on June 02, 2015 (GMT -0800)
Sutton/Kings River | | Change Station
CLOSE
Current Station
Personal Weather Station
Location: Sutton, AK
Elevation: 600 ft
Nearby Weather Stations

Elev 600 ft 61.74 °N, 148.77 °W | Updated 21 seconds ago

Light Rain
Light Rain
53.4 °F
Feels Like 53.4 °F
N
4.0
Wind Variable Wind from WSW
Gusts 6.0 mph

Today
High -- | Low -- °F
--% Chance of Precip.
Yesterday
High -- | Low -- °F
Precip. -- in
4:23 AM 11:23 PM
Full, 100% visible
Pressure 29.70 in
Visibility 10.0 miles
Clouds Mostly Cloudy 4900 ft
Overcast 6000 ft
Dew Point 49 °F
Humidity 86%
Rainfall 0.04 in
Snow Depth Not available.
UV 2 out of 12
Pollen Not available.
Air Quality Not available.
Flu Activity Sporadic
METAR PAAQ 030053Z 07003KT 10SM -RA BKN049 OVC060 12/09 A2969 RMK AO2 SLP056 P0001 T01220089

More Conditions Fewer Conditions

Pressure 29.70 in
Visibility 10.0 miles
Clouds Mostly Cloudy 4900 ft
Overcast 6000 ft
Dew Point 49 °F
Humidity 86%
Rainfall 0.04 in
Snow Depth Not available.
UV 2 out of 12
Pollen Not available.
Air Quality Not available.
Flu Activity Sporadic
METAR PAAQ 030053Z 07003KT 10SM -RA BKN049 OVC060 12/09 A2969 RMK AO2 SLP056 P0001 T01220089

More Conditions Fewer Conditions

10-Day Weather Forecast

×

Almanac

Astronomy

Jun. 02, 2015 Rise Set
Actual Time
Civil Twilight
Nautical Twilight
Astronomical Twilight
Moon
Length of Visible Light
Length of Day
Tomorrow will be .
, % of the Moon is Illuminated

Today's Extremes

State Highs State Lows

Community

WunderPhotos

Upload Photos

1,826,085 photos uploaded!

WunderBlogs® & News

Nearby

Air Quality

  Air Quality AQ Index Pollutant
Not available.

Snow Depth

Station Depth Elevation

Earthquake Activity

City Distance Mag. Time & Date
Minimum magnitude displayed is 2.5.

Coastal Water Temperatures

Place Temperature

Stations

Nearby Weather Stations

Station Location Temp. Windchill Dew Point Humidity Wind Precip. Elev Updated Type